Aérodrome :
LOGIN :

S'inscrire | Disclaimer

   EN    FR    IT 

 










Légende :    VFR   VFR Marginal   IFR   IFR Intensif   IFR Très Intensif
Visi : 
Plafond : 
>= 8 km
>= 3000ft
5 à 8 km
1000 à 3000 ft
1500m à 5 km
500 à 1000 ft
800 à 1500m
200 à 500 ft
< 800m
< 200 ft
Symboles :   Orages  Brouillard  Fortes neiges  Fortes précipitations  Vent > 20 kt
SIGMETs :   Divers  Orages  Givrage  Turbulence  Onde Orograph.  Cendres Volcan.






- Altitude de l'aérodrome : 242 ft
- Code IATA : DUB


EIDW - Dublin

DERNIER METAR :
  • 191230Z 13008KT 110V170 9999 FEW027 BKN039 BKN050 11/04 Q1019

METARs EXPIRÉS :
  • 191200Z 14009KT 100V170 9999 FEW031 SCT037 BKN070 11/05 Q1019
  • 191130Z 13010KT 9999 FEW030 SCT039 BKN070 12/05 Q1019
  • 191100Z 14008KT 100V170 9999 FEW030 SCT037 BKN070 12/06 Q1019
  • 191030Z 14010KT 9999 FEW030 BKN070 BKN140 13/04 Q1020
  • 191000Z 15009KT 110V200 9999 FEW030 BKN070 BKN140 11/04 Q1020

TAF TAF EIDW
Valide du 19 à 12h jusqu'au 20 à 12h UTC


191100Z 1912/2012 15011KT 9999 FEW025 SCT035
PROB30
TEMPO 1912/1915 14015G25KT
BECMG 1915/1917 22008KT
BECMG 1919/1921 VRB03KT
BECMG 2009/2011 07005KT



MET'MAP, la Météo Aéronautique d'un coup d'oeil ! - Copyright ORBIFLY Décembre 2007 - Disclaimer

ORBIFLY MET'MAP TEAM :

Programmation & Développement : Alexandra Zaïnal
Sur une idée originale de : Baudouin d'Aumeries
Assistance à la programmation : Marc-Olivier Méhu
Soutien technique & logistique : Manuel Goepfert

Contact : metmap@orbifly.com




SOURCES & CREDITS :

   NOAA